sensor_id;sensor_type;location;lat;lon;timestamp;P1;durP1;ratioP1;P2;durP2;ratioP2
1410;SDS011;700;51.906;8.404;2022-08-11T00:03:55;6.53;;;3.67;;
1410;SDS011;700;51.906;8.404;2022-08-11T00:09:12;5.10;;;3.00;;
1410;SDS011;700;51.906;8.404;2022-08-11T00:14:27;4.37;;;3.40;;
1410;SDS011;700;51.906;8.404;2022-08-11T00:19:32;5.37;;;4.00;;
1410;SDS011;700;51.906;8.404;2022-08-11T00:24:36;4.87;;;3.20;;
1410;SDS011;700;51.906;8.404;2022-08-11T00:29:50;5.30;;;3.30;;
1410;SDS011;700;51.906;8.404;2022-08-11T00:34:53;4.20;;;3.33;;
1410;SDS011;700;51.906;8.404;2022-08-11T00:39:57;5.40;;;3.97;;
1410;SDS011;700;51.906;8.404;2022-08-11T00:45:05;9.53;;;4.90;;
1410;SDS011;700;51.906;8.404;2022-08-11T00:50:47;5.03;;;3.87;;
1410;SDS011;700;51.906;8.404;2022-08-11T01:01:49;5.03;;;3.70;;
1410;SDS011;700;51.906;8.404;2022-08-11T01:34:47;5.70;;;3.70;;
1410;SDS011;700;51.906;8.404;2022-08-11T01:40:14;5.10;;;3.63;;
1410;SDS011;700;51.906;8.404;2022-08-11T01:45:49;5.37;;;3.70;;
1410;SDS011;700;51.906;8.404;2022-08-11T01:51:04;4.63;;;3.80;;
1410;SDS011;700;51.906;8.404;2022-08-11T02:11:57;3.40;;;3.00;;
1410;SDS011;700;51.906;8.404;2022-08-11T02:17:35;5.00;;;3.77;;
1410;SDS011;700;51.906;8.404;2022-08-11T02:28:12;4.67;;;3.50;;
1410;SDS011;700;51.906;8.404;2022-08-11T02:33:28;5.00;;;3.83;;
1410;SDS011;700;51.906;8.404;2022-08-11T02:44:02;5.40;;;3.57;;
1410;SDS011;700;51.906;8.404;2022-08-11T02:49:27;8.03;;;4.10;;
1410;SDS011;700;51.906;8.404;2022-08-11T02:55:01;5.80;;;4.70;;
1410;SDS011;700;51.906;8.404;2022-08-11T03:00:12;5.83;;;4.10;;
1410;SDS011;700;51.906;8.404;2022-08-11T03:05:20;5.50;;;3.67;;
1410;SDS011;700;51.906;8.404;2022-08-11T03:10:50;6.30;;;4.10;;
1410;SDS011;700;51.906;8.404;2022-08-11T03:32:33;6.00;;;4.50;;
1410;SDS011;700;51.906;8.404;2022-08-11T03:42:56;5.00;;;4.50;;
1410;SDS011;700;51.906;8.404;2022-08-11T03:58:57;7.60;;;4.20;;
1410;SDS011;700;51.906;8.404;2022-08-11T04:31:35;5.73;;;4.43;;
1410;SDS011;700;51.906;8.404;2022-08-11T04:53:41;7.47;;;4.53;;
1410;SDS011;700;51.906;8.404;2022-08-11T05:15:35;7.67;;;6.07;;
1410;SDS011;700;51.906;8.404;2022-08-11T05:21:11;6.73;;;4.70;;
1410;SDS011;700;51.906;8.404;2022-08-11T05:26:38;6.90;;;3.90;;
1410;SDS011;700;51.906;8.404;2022-08-11T05:32:03;7.40;;;3.87;;
1410;SDS011;700;51.906;8.404;2022-08-11T05:42:30;6.23;;;3.00;;
1410;SDS011;700;51.906;8.404;2022-08-11T05:47:51;5.90;;;4.00;;
1410;SDS011;700;51.906;8.404;2022-08-11T05:53:11;5.17;;;3.67;;
1410;SDS011;700;51.906;8.404;2022-08-11T05:58:39;7.23;;;3.63;;
1410;SDS011;700;51.906;8.404;2022-08-11T06:03:42;6.67;;;3.20;;
1410;SDS011;700;51.906;8.404;2022-08-11T06:09:03;9.33;;;3.80;;
1410;SDS011;700;51.906;8.404;2022-08-11T06:14:06;6.93;;;3.40;;
1410;SDS011;700;51.906;8.404;2022-08-11T06:19:09;7.23;;;2.93;;
1410;SDS011;700;51.906;8.404;2022-08-11T06:24:13;10.67;;;3.10;;
1410;SDS011;700;51.906;8.404;2022-08-11T06:29:15;4.40;;;2.70;;
1410;SDS011;700;51.906;8.404;2022-08-11T06:45:36;6.47;;;4.10;;
1410;SDS011;700;51.906;8.404;2022-08-11T06:50:51;7.37;;;2.40;;
1410;SDS011;700;51.906;8.404;2022-08-11T06:56:14;4.13;;;2.50;;
1410;SDS011;700;51.906;8.404;2022-08-11T07:12:44;3.47;;;1.97;;
1410;SDS011;700;51.906;8.404;2022-08-11T07:18:05;4.13;;;2.47;;
1410;SDS011;700;51.906;8.404;2022-08-11T07:23:29;3.57;;;2.13;;
1410;SDS011;700;51.906;8.404;2022-08-11T07:29:00;3.17;;;2.00;;
1410;SDS011;700;51.906;8.404;2022-08-11T07:34:05;5.80;;;2.43;;
1410;SDS011;700;51.906;8.404;2022-08-11T07:39:40;7.83;;;3.80;;
1410;SDS011;700;51.906;8.404;2022-08-11T07:44:43;3.90;;;2.00;;
1410;SDS011;700;51.906;8.404;2022-08-11T07:50:05;3.50;;;2.03;;
1410;SDS011;700;51.906;8.404;2022-08-11T07:55:26;4.03;;;2.40;;
1410;SDS011;700;51.906;8.404;2022-08-11T08:00:34;9.60;;;2.43;;
1410;SDS011;700;51.906;8.404;2022-08-11T08:05:57;5.37;;;2.20;;
1410;SDS011;700;51.906;8.404;2022-08-11T08:11:18;4.73;;;2.27;;
1410;SDS011;700;51.906;8.404;2022-08-11T08:16:39;3.67;;;2.30;;
1410;SDS011;700;51.906;8.404;2022-08-11T08:22:01;3.80;;;2.30;;
1410;SDS011;700;51.906;8.404;2022-08-11T08:27:07;3.73;;;2.70;;
1410;SDS011;700;51.906;8.404;2022-08-11T08:32:11;5.40;;;2.80;;
1410;SDS011;700;51.906;8.404;2022-08-11T08:37:15;4.73;;;2.70;;
1410;SDS011;700;51.906;8.404;2022-08-11T08:42:25;4.50;;;2.60;;
1410;SDS011;700;51.906;8.404;2022-08-11T08:47:27;4.50;;;2.83;;
1410;SDS011;700;51.906;8.404;2022-08-11T08:52:33;3.80;;;2.90;;
1410;SDS011;700;51.906;8.404;2022-08-11T08:57:39;4.27;;;2.73;;
1410;SDS011;700;51.906;8.404;2022-08-11T09:02:43;4.87;;;2.47;;
1410;SDS011;700;51.906;8.404;2022-08-11T09:07:44;7.33;;;2.97;;
1410;SDS011;700;51.906;8.404;2022-08-11T09:12:50;4.77;;;2.93;;
1410;SDS011;700;51.906;8.404;2022-08-11T09:17:55;7.27;;;2.80;;
1410;SDS011;700;51.906;8.404;2022-08-11T09:23:06;6.90;;;2.90;;
1410;SDS011;700;51.906;8.404;2022-08-11T09:28:26;5.00;;;3.00;;
1410;SDS011;700;51.906;8.404;2022-08-11T09:33:29;5.60;;;3.17;;
1410;SDS011;700;51.906;8.404;2022-08-11T09:38:34;5.83;;;2.90;;
1410;SDS011;700;51.906;8.404;2022-08-11T09:43:53;5.63;;;2.80;;
1410;SDS011;700;51.906;8.404;2022-08-11T09:49:12;5.87;;;2.67;;
1410;SDS011;700;51.906;8.404;2022-08-11T09:54:15;2.93;;;2.40;;
1410;SDS011;700;51.906;8.404;2022-08-11T09:59:17;4.00;;;2.50;;
1410;SDS011;700;51.906;8.404;2022-08-11T10:04:34;4.50;;;2.50;;
1410;SDS011;700;51.906;8.404;2022-08-11T10:09:51;5.70;;;2.60;;
1410;SDS011;700;51.906;8.404;2022-08-11T10:15:03;8.50;;;2.60;;
1410;SDS011;700;51.906;8.404;2022-08-11T10:20:29;4.03;;;2.27;;
1410;SDS011;700;51.906;8.404;2022-08-11T10:25:33;2.90;;;2.60;;
1410;SDS011;700;51.906;8.404;2022-08-11T10:30:54;2.50;;;2.30;;
1410;SDS011;700;51.906;8.404;2022-08-11T10:36:16;2.30;;;2.10;;
1410;SDS011;700;51.906;8.404;2022-08-11T10:41:18;5.40;;;2.20;;
1410;SDS011;700;51.906;8.404;2022-08-11T10:46:38;4.77;;;2.50;;
1410;SDS011;700;51.906;8.404;2022-08-11T10:51:57;5.40;;;2.57;;
1410;SDS011;700;51.906;8.404;2022-08-11T10:57:18;4.53;;;2.30;;
1410;SDS011;700;51.906;8.404;2022-08-11T11:02:37;5.40;;;2.30;;
1410;SDS011;700;51.906;8.404;2022-08-11T11:07:46;2.90;;;2.23;;
1410;SDS011;700;51.906;8.404;2022-08-11T11:13:30;3.20;;;2.47;;
1410;SDS011;700;51.906;8.404;2022-08-11T11:18:51;3.30;;;2.30;;
1410;SDS011;700;51.906;8.404;2022-08-11T11:23:55;5.57;;;2.43;;
1410;SDS011;700;51.906;8.404;2022-08-11T11:40:05;3.73;;;2.50;;
1410;SDS011;700;51.906;8.404;2022-08-11T11:45:14;4.43;;;2.50;;
1410;SDS011;700;51.906;8.404;2022-08-11T11:50:20;3.93;;;2.40;;
1410;SDS011;700;51.906;8.404;2022-08-11T11:55:26;3.10;;;2.57;;
1410;SDS011;700;51.906;8.404;2022-08-11T12:00:28;4.97;;;2.70;;
1410;SDS011;700;51.906;8.404;2022-08-11T12:05:48;3.00;;;2.20;;
1410;SDS011;700;51.906;8.404;2022-08-11T12:10:52;3.23;;;2.50;;
1410;SDS011;700;51.906;8.404;2022-08-11T12:16:15;5.63;;;2.70;;
1410;SDS011;700;51.906;8.404;2022-08-11T12:21:17;3.50;;;2.60;;
1410;SDS011;700;51.906;8.404;2022-08-11T12:26:18;3.70;;;2.50;;
1410;SDS011;700;51.906;8.404;2022-08-11T12:31:39;6.10;;;2.53;;
1410;SDS011;700;51.906;8.404;2022-08-11T12:36:54;3.23;;;2.60;;
1410;SDS011;700;51.906;8.404;2022-08-11T12:41:57;5.70;;;2.00;;
1410;SDS011;700;51.906;8.404;2022-08-11T12:47:18;3.70;;;2.17;;
1410;SDS011;700;51.906;8.404;2022-08-11T12:52:21;6.80;;;2.50;;
1410;SDS011;700;51.906;8.404;2022-08-11T12:57:32;2.97;;;2.47;;
1410;SDS011;700;51.906;8.404;2022-08-11T13:02:57;5.47;;;3.13;;
1410;SDS011;700;51.906;8.404;2022-08-11T13:08:17;3.43;;;2.60;;
1410;SDS011;700;51.906;8.404;2022-08-11T13:13:21;3.27;;;2.40;;
1410;SDS011;700;51.906;8.404;2022-08-11T13:18:27;3.60;;;2.30;;
1410;SDS011;700;51.906;8.404;2022-08-11T13:23:32;5.03;;;2.50;;
1410;SDS011;700;51.906;8.404;2022-08-11T13:28:35;5.23;;;2.67;;
1410;SDS011;700;51.906;8.404;2022-08-11T13:33:40;3.57;;;2.33;;
1410;SDS011;700;51.906;8.404;2022-08-11T13:38:45;3.07;;;2.30;;
1410;SDS011;700;51.906;8.404;2022-08-11T13:43:48;3.40;;;2.10;;
1410;SDS011;700;51.906;8.404;2022-08-11T13:48:51;3.47;;;2.10;;
1410;SDS011;700;51.906;8.404;2022-08-11T13:53:53;4.27;;;2.37;;
1410;SDS011;700;51.906;8.404;2022-08-11T13:58:57;3.70;;;2.13;;
1410;SDS011;700;51.906;8.404;2022-08-11T14:04:10;2.83;;;2.40;;
1410;SDS011;700;51.906;8.404;2022-08-11T14:09:13;2.37;;;2.10;;
1410;SDS011;700;51.906;8.404;2022-08-11T14:14:21;4.80;;;2.20;;
1410;SDS011;700;51.906;8.404;2022-08-11T14:19:25;3.33;;;2.17;;
1410;SDS011;700;51.906;8.404;2022-08-11T14:24:27;3.93;;;2.20;;
1410;SDS011;700;51.906;8.404;2022-08-11T14:29:30;4.87;;;2.20;;
1410;SDS011;700;51.906;8.404;2022-08-11T14:34:33;4.47;;;2.20;;
1410;SDS011;700;51.906;8.404;2022-08-11T14:39:42;3.50;;;2.13;;
1410;SDS011;700;51.906;8.404;2022-08-11T14:44:49;5.83;;;2.20;;
1410;SDS011;700;51.906;8.404;2022-08-11T14:50:13;4.83;;;2.53;;
1410;SDS011;700;51.906;8.404;2022-08-11T14:55:17;4.53;;;2.87;;
1410;SDS011;700;51.906;8.404;2022-08-11T15:00:38;3.63;;;2.40;;
1410;SDS011;700;51.906;8.404;2022-08-11T15:05:43;3.43;;;2.20;;
1410;SDS011;700;51.906;8.404;2022-08-11T15:10:50;6.17;;;2.77;;
1410;SDS011;700;51.906;8.404;2022-08-11T15:15:51;3.30;;;2.20;;
1410;SDS011;700;51.906;8.404;2022-08-11T15:21:11;3.80;;;3.37;;
1410;SDS011;700;51.906;8.404;2022-08-11T15:26:37;5.80;;;2.27;;
1410;SDS011;700;51.906;8.404;2022-08-11T15:32:01;4.03;;;2.50;;
1410;SDS011;700;51.906;8.404;2022-08-11T15:37:21;4.97;;;2.30;;
1410;SDS011;700;51.906;8.404;2022-08-11T15:42:30;4.10;;;2.30;;
1410;SDS011;700;51.906;8.404;2022-08-11T15:47:58;3.87;;;2.30;;
1410;SDS011;700;51.906;8.404;2022-08-11T15:53:16;3.80;;;2.60;;
1410;SDS011;700;51.906;8.404;2022-08-11T15:58:42;4.03;;;2.37;;
1410;SDS011;700;51.906;8.404;2022-08-11T16:04:08;3.70;;;2.03;;
1410;SDS011;700;51.906;8.404;2022-08-11T16:09:14;8.53;;;2.60;;
1410;SDS011;700;51.906;8.404;2022-08-11T16:14:19;4.90;;;2.67;;
1410;SDS011;700;51.906;8.404;2022-08-11T16:19:44;7.23;;;3.67;;
1410;SDS011;700;51.906;8.404;2022-08-11T16:24:47;5.07;;;2.83;;
1410;SDS011;700;51.906;8.404;2022-08-11T16:29:50;6.10;;;2.30;;
1410;SDS011;700;51.906;8.404;2022-08-11T16:34:55;3.43;;;2.47;;
1410;SDS011;700;51.906;8.404;2022-08-11T16:40:18;2.73;;;2.47;;
1410;SDS011;700;51.906;8.404;2022-08-11T16:45:22;4.50;;;2.50;;
1410;SDS011;700;51.906;8.404;2022-08-11T16:50:44;8.60;;;4.20;;
1410;SDS011;700;51.906;8.404;2022-08-11T16:55:45;4.23;;;2.70;;
1410;SDS011;700;51.906;8.404;2022-08-11T17:00:50;4.20;;;3.30;;
1410;SDS011;700;51.906;8.404;2022-08-11T17:05:54;4.67;;;2.77;;
1410;SDS011;700;51.906;8.404;2022-08-11T17:11:13;3.80;;;3.10;;
1410;SDS011;700;51.906;8.404;2022-08-11T17:16:35;4.37;;;3.10;;
1410;SDS011;700;51.906;8.404;2022-08-11T17:21:43;6.20;;;2.83;;
1410;SDS011;700;51.906;8.404;2022-08-11T17:27:18;5.90;;;2.60;;
1410;SDS011;700;51.906;8.404;2022-08-11T17:32:22;4.17;;;2.90;;
1410;SDS011;700;51.906;8.404;2022-08-11T17:37:47;4.37;;;2.60;;
1410;SDS011;700;51.906;8.404;2022-08-11T17:42:51;6.20;;;3.13;;
1410;SDS011;700;51.906;8.404;2022-08-11T17:48:13;7.30;;;3.37;;
1410;SDS011;700;51.906;8.404;2022-08-11T17:53:30;8.93;;;3.00;;
1410;SDS011;700;51.906;8.404;2022-08-11T17:58:55;6.67;;;4.17;;
1410;SDS011;700;51.906;8.404;2022-08-11T18:04:18;4.23;;;3.30;;
1410;SDS011;700;51.906;8.404;2022-08-11T18:09:23;4.90;;;2.50;;
1410;SDS011;700;51.906;8.404;2022-08-11T18:14:44;6.90;;;3.10;;
1410;SDS011;700;51.906;8.404;2022-08-11T18:20:08;3.80;;;3.17;;
1410;SDS011;700;51.906;8.404;2022-08-11T18:25:31;4.80;;;3.10;;
1410;SDS011;700;51.906;8.404;2022-08-11T18:30:55;4.77;;;3.17;;
1410;SDS011;700;51.906;8.404;2022-08-11T18:36:21;6.10;;;3.47;;
1410;SDS011;700;51.906;8.404;2022-08-11T18:41:45;4.17;;;3.07;;
1410;SDS011;700;51.906;8.404;2022-08-11T18:47:07;5.80;;;3.13;;
1410;SDS011;700;51.906;8.404;2022-08-11T18:52:29;4.70;;;3.20;;
1410;SDS011;700;51.906;8.404;2022-08-11T18:57:52;3.23;;;2.47;;
1410;SDS011;700;51.906;8.404;2022-08-11T19:03:13;3.67;;;3.30;;
1410;SDS011;700;51.906;8.404;2022-08-11T19:08:35;3.80;;;2.90;;
1410;SDS011;700;51.906;8.404;2022-08-11T19:13:59;5.47;;;3.67;;
1410;SDS011;700;51.906;8.404;2022-08-11T19:19:19;3.30;;;2.97;;
1410;SDS011;700;51.906;8.404;2022-08-11T19:24:43;4.03;;;3.00;;
1410;SDS011;700;51.906;8.404;2022-08-11T19:30:06;4.40;;;3.63;;
1410;SDS011;700;51.906;8.404;2022-08-11T19:35:25;6.53;;;3.47;;
1410;SDS011;700;51.906;8.404;2022-08-11T19:40:46;3.87;;;2.97;;
1410;SDS011;700;51.906;8.404;2022-08-11T19:46:06;5.30;;;3.60;;
1410;SDS011;700;51.906;8.404;2022-08-11T19:51:28;4.90;;;3.67;;
1410;SDS011;700;51.906;8.404;2022-08-11T19:56:48;6.50;;;3.30;;
1410;SDS011;700;51.906;8.404;2022-08-11T20:02:11;7.63;;;4.00;;
1410;SDS011;700;51.906;8.404;2022-08-11T20:07:30;4.53;;;3.50;;
1410;SDS011;700;51.906;8.404;2022-08-11T20:12:50;4.03;;;3.60;;
1410;SDS011;700;51.906;8.404;2022-08-11T20:18:11;5.50;;;3.70;;
1410;SDS011;700;51.906;8.404;2022-08-11T20:23:32;7.37;;;3.20;;
1410;SDS011;700;51.906;8.404;2022-08-11T20:28:53;5.70;;;3.50;;
1410;SDS011;700;51.906;8.404;2022-08-11T20:34:15;5.53;;;3.80;;
1410;SDS011;700;51.906;8.404;2022-08-11T20:39:35;5.90;;;3.60;;
1410;SDS011;700;51.906;8.404;2022-08-11T20:44:56;4.80;;;3.67;;
1410;SDS011;700;51.906;8.404;2022-08-11T20:50:17;4.73;;;3.40;;
1410;SDS011;700;51.906;8.404;2022-08-11T20:55:40;4.20;;;3.80;;
1410;SDS011;700;51.906;8.404;2022-08-11T21:01:00;4.53;;;3.73;;
1410;SDS011;700;51.906;8.404;2022-08-11T21:06:22;4.00;;;3.50;;
1410;SDS011;700;51.906;8.404;2022-08-11T21:11:43;6.90;;;3.37;;
1410;SDS011;700;51.906;8.404;2022-08-11T21:17:03;6.90;;;3.90;;
1410;SDS011;700;51.906;8.404;2022-08-11T21:22:25;4.73;;;3.77;;
1410;SDS011;700;51.906;8.404;2022-08-11T21:27:51;4.10;;;2.97;;
1410;SDS011;700;51.906;8.404;2022-08-11T21:33:12;5.27;;;3.60;;
1410;SDS011;700;51.906;8.404;2022-08-11T21:38:34;4.63;;;3.70;;
1410;SDS011;700;51.906;8.404;2022-08-11T21:43:54;4.80;;;3.47;;
1410;SDS011;700;51.906;8.404;2022-08-11T21:49:14;7.40;;;3.73;;
1410;SDS011;700;51.906;8.404;2022-08-11T21:54:37;5.37;;;3.50;;
1410;SDS011;700;51.906;8.404;2022-08-11T21:59:58;4.50;;;3.47;;
1410;SDS011;700;51.906;8.404;2022-08-11T22:05:18;4.60;;;3.60;;
1410;SDS011;700;51.906;8.404;2022-08-11T22:10:38;3.80;;;2.97;;
1410;SDS011;700;51.906;8.404;2022-08-11T22:15:58;6.70;;;3.50;;
1410;SDS011;700;51.906;8.404;2022-08-11T22:21:17;8.20;;;3.23;;
1410;SDS011;700;51.906;8.404;2022-08-11T22:26:39;6.83;;;3.50;;
1410;SDS011;700;51.906;8.404;2022-08-11T22:31:58;5.43;;;3.50;;
1410;SDS011;700;51.906;8.404;2022-08-11T22:37:18;6.30;;;3.53;;
1410;SDS011;700;51.906;8.404;2022-08-11T22:42:39;6.53;;;3.60;;
1410;SDS011;700;51.906;8.404;2022-08-11T22:48:00;4.17;;;3.60;;
1410;SDS011;700;51.906;8.404;2022-08-11T22:53:22;4.60;;;3.50;;
1410;SDS011;700;51.906;8.404;2022-08-11T22:58:43;5.50;;;3.37;;
1410;SDS011;700;51.906;8.404;2022-08-11T23:04:06;3.90;;;3.40;;
1410;SDS011;700;51.906;8.404;2022-08-11T23:09:26;6.17;;;3.50;;
1410;SDS011;700;51.906;8.404;2022-08-11T23:14:46;4.87;;;3.43;;
1410;SDS011;700;51.906;8.404;2022-08-11T23:20:08;4.93;;;3.97;;
1410;SDS011;700;51.906;8.404;2022-08-11T23:25:32;5.13;;;3.50;;
1410;SDS011;700;51.906;8.404;2022-08-11T23:30:54;5.90;;;3.40;;
1410;SDS011;700;51.906;8.404;2022-08-11T23:36:15;8.10;;;3.30;;
1410;SDS011;700;51.906;8.404;2022-08-11T23:41:34;4.90;;;3.33;;
1410;SDS011;700;51.906;8.404;2022-08-11T23:46:57;5.20;;;3.57;;
1410;SDS011;700;51.906;8.404;2022-08-11T23:52:18;4.70;;;3.70;;
1410;SDS011;700;51.906;8.404;2022-08-11T23:57:39;4.10;;;3.50;;
